Time;durP1;ratioP1;P1;durP2;ratioP2;P2;SDS_P1;SDS_P2;PMS_P1;PMS_P2;Temp;Humidity;BMP_temperature;BMP_pressure;BME280_temperature;BME280_humidity;BME280_pressure;Samples;Min_cycle;Max_cycle;Signal;HPM_P1;HPM_P2
2021/11/30 00:01:44;;;;;;;5.68;2.15;;;;;;;4.26;99.34;101046.03;5006757;28;20445;-69
2021/11/30 00:04:12;;;;;;;6.05;2.15;;;;;;;4.24;99.89;101031.03;5010219;28;20197;-69
2021/11/30 00:06:41;;;;;;;6.38;2.10;;;;;;;4.22;100.00;101022.25;5006826;28;20121;-70
2021/11/30 00:10:43;;;;;;;8.25;2.80;;;;;;;4.18;100.00;101012.59;5007550;28;20135;-69
2021/11/30 00:12:14;;;;;;;4.45;2.55;;;;;;;4.15;100.00;101009.94;5003544;28;20050;-69
2021/11/30 00:14:45;;;;;;;4.20;1.92;;;;;;;4.09;100.00;101003.81;5003533;28;20072;-69
2021/11/30 00:17:15;;;;;;;5.85;2.25;;;;;;;4.08;100.00;101002.03;5008477;28;20148;-69
2021/11/30 00:19:45;;;;;;;11.68;3.17;;;;;;;4.04;100.00;100994.16;5004830;28;22110;-73
2021/11/30 00:22:15;;;;;;;5.70;2.10;;;;;;;4.03;100.00;100989.72;5008425;28;20133;-74
2021/11/30 00:24:43;;;;;;;9.68;2.60;;;;;;;4.05;100.00;100991.50;5007550;28;20334;-73
2021/11/30 00:27:14;;;;;;;7.57;2.35;;;;;;;4.01;100.00;100980.94;5010473;28;20056;-74
2021/11/30 00:29:44;;;;;;;4.50;2.30;;;;;;;4.03;100.00;100976.53;5010403;28;20092;-73
2021/11/30 00:32:12;;;;;;;11.15;3.08;;;;;;;4.04;100.00;100968.59;5005435;28;20042;-73
2021/11/30 00:34:41;;;;;;;5.63;2.58;;;;;;;4.09;100.00;100963.31;5011260;28;20049;-73
2021/11/30 00:37:09;;;;;;;7.47;2.67;;;;;;;4.14;100.00;100965.91;5002999;28;20123;-72
2021/11/30 00:39:37;;;;;;;13.25;3.08;;;;;;;4.10;100.00;100958.03;5006970;28;20041;-73
2021/11/30 00:42:05;;;;;;;11.35;2.92;;;;;;;4.17;100.00;100948.31;5004302;28;20698;-73
2021/11/30 00:44:35;;;;;;;8.60;3.63;;;;;;;4.17;100.00;100945.69;5006781;28;20057;-73
2021/11/30 00:47:05;;;;;;;9.10;3.92;;;;;;;4.15;100.00;100944.78;5006566;28;20542;-69
2021/11/30 00:49:33;;;;;;;10.70;3.88;;;;;;;4.19;100.00;100928.06;5002850;28;20103;-69
2021/11/30 00:52:01;;;;;;;8.65;3.75;;;;;;;4.25;100.00;100930.66;5011228;28;20450;-69
2021/11/30 00:54:30;;;;;;;11.85;4.15;;;;;;;4.27;100.00;100934.19;5006334;28;20050;-69
2021/11/30 00:56:58;;;;;;;9.32;3.75;;;;;;;4.34;100.00;100927.09;5011240;28;20608;-69
2021/11/30 00:59:28;;;;;;;10.38;4.10;;;;;;;4.36;100.00;100922.69;5006035;28;20049;-69
2021/11/30 01:01:56;;;;;;;13.05;4.13;;;;;;;4.38;100.00;100913.00;5004718;28;20145;-69
2021/11/30 01:04:26;;;;;;;11.20;3.90;;;;;;;4.43;100.00;100911.19;5009996;28;20061;-69
2021/11/30 01:06:54;;;;;;;10.02;4.15;;;;;;;4.49;100.00;100902.34;5005086;28;20580;-69
2021/11/30 01:09:22;;;;;;;9.90;4.32;;;;;;;4.54;100.00;100905.84;5008771;28;20119;-69
2021/11/30 01:11:50;;;;;;;9.27;4.32;;;;;;;4.58;100.00;100899.66;5001933;28;20690;-69
2021/11/30 01:14:18;;;;;;;11.88;3.97;;;;;;;4.69;100.00;100883.72;5007842;28;20045;-69
2021/11/30 01:16:47;;;;;;;12.65;4.20;;;;;;;4.71;100.00;100889.00;5006126;28;20057;-69
2021/11/30 01:19:16;;;;;;;7.30;3.25;;;;;;;4.72;100.00;100891.66;5005025;28;20049;-69
2021/11/30 01:21:45;;;;;;;8.45;4.07;;;;;;;4.72;100.00;100896.06;5006324;28;20061;-69
2021/11/30 01:24:14;;;;;;;11.20;3.83;;;;;;;4.72;100.00;100888.13;5009430;28;20139;-69
2021/11/30 01:26:42;;;;;;;12.43;4.65;;;;;;;4.77;100.00;100884.56;5003994;28;20046;-69
2021/11/30 01:29:10;;;;;;;7.72;3.35;;;;;;;4.81;100.00;100874.84;5012926;28;20049;-69
2021/11/30 01:31:39;;;;;;;7.93;3.35;;;;;;;4.83;100.00;100875.69;5002462;28;21672;-70
2021/11/30 01:34:07;;;;;;;7.53;3.38;;;;;;;4.87;100.00;100869.50;5008161;28;20175;-69
2021/11/30 01:36:35;;;;;;;10.73;4.15;;;;;;;4.90;100.00;100876.53;5003803;28;20546;-70
2021/11/30 01:39:05;;;;;;;7.60;3.88;;;;;;;4.94;100.00;100881.78;5005222;28;20441;-69
2021/11/30 01:41:37;;;;;;;7.75;3.85;;;;;;;5.00;100.00;100878.19;5008869;28;20068;-69
2021/11/30 01:44:09;;;;;;;9.57;4.03;;;;;;;5.02;100.00;100873.75;5004182;28;20120;-69
2021/11/30 01:46:53;;;;;;;9.20;3.90;;;;;;;5.04;100.00;100869.38;4999658;28;20054;-69
2021/11/30 01:49:26;;;;;;;9.48;4.35;;;;;;;5.10;100.00;100860.50;5006713;28;20621;-69
2021/11/30 01:51:54;;;;;;;8.15;3.42;;;;;;;5.17;100.00;100857.75;5002963;28;20402;-69
2021/11/30 01:54:23;;;;;;;10.50;3.70;;;;;;;5.24;100.00;100854.19;5007799;28;20092;-69
2021/11/30 01:56:51;;;;;;;8.98;3.80;;;;;;;5.23;100.00;100855.06;5000390;28;20077;-68
2021/11/30 01:59:19;;;;;;;9.40;4.43;;;;;;;5.27;100.00;100845.31;5008122;28;20080;-73
2021/11/30 02:01:47;;;;;;;7.55;3.72;;;;;;;5.35;100.00;100843.47;5000214;28;20458;-73
2021/11/30 02:04:16;;;;;;;7.55;4.00;;;;;;;5.38;100.00;100840.81;5007703;28;20353;-72
2021/11/30 02:06:44;;;;;;;10.95;4.40;;;;;;;5.46;100.00;100842.50;5007760;28;20089;-73
2021/11/30 02:09:12;;;;;;;6.95;3.53;;;;;;;5.57;100.00;100838.81;5006433;28;20139;-73
2021/11/30 02:11:42;;;;;;;11.18;3.90;;;;;;;5.69;100.00;100844.88;5004528;28;20063;-72
2021/11/30 02:14:10;;;;;;;10.25;4.20;;;;;;;5.77;100.00;100832.41;5002894;28;20138;-72
2021/11/30 02:16:38;;;;;;;8.68;5.05;;;;;;;5.86;100.00;100834.97;5007346;28;20143;-74
2021/11/30 02:19:07;;;;;;;8.15;4.55;;;;;;;5.94;100.00;100833.09;5005581;28;20054;-73
2021/11/30 02:21:38;;;;;;;11.45;4.63;;;;;;;6.02;100.00;100830.34;5007590;28;20057;-73
2021/11/30 02:24:08;;;;;;;10.10;3.85;;;;;;;6.04;100.00;100833.00;5001389;28;20057;-73
2021/11/30 02:26:38;;;;;;;9.57;4.15;;;;;;;6.07;100.00;100817.94;5009112;28;20050;-73
2021/11/30 02:29:08;;;;;;;10.18;4.00;;;;;;;6.14;100.00;100824.03;5002597;28;20049;-73
2021/11/30 02:31:39;;;;;;;7.70;3.53;;;;;;;6.13;100.00;100820.50;5005515;28;20133;-73
2021/11/30 02:34:06;;;;;;;7.70;4.22;;;;;;;6.19;100.00;100800.97;5003746;28;20121;-73
2021/11/30 02:36:48;;;;;;;7.88;3.63;;;;;;;6.28;100.00;100803.50;5001654;28;20416;-73
2021/11/30 02:39:20;;;;;;;7.65;3.38;;;;;;;6.30;100.00;100817.63;5007911;28;20326;-73
2021/11/30 02:41:51;;;;;;;12.13;4.25;;;;;;;6.37;100.00;100813.09;5003116;28;20061;-73
2021/11/30 02:44:22;;;;;;;9.77;3.47;;;;;;;6.45;100.00;100805.00;5008959;28;20484;-73
2021/11/30 02:46:54;;;;;;;8.15;3.75;;;;;;;6.40;100.00;100798.91;5002544;28;20050;-73
2021/11/30 02:49:25;;;;;;;7.57;3.47;;;;;;;6.47;100.00;100790.84;5004711;28;20049;-73
2021/11/30 02:52:03;;;;;;;9.80;3.15;;;;;;;6.42;100.00;100792.69;5003641;28;20141;-74
2021/11/30 02:54:31;;;;;;;9.60;3.53;;;;;;;6.54;100.00;100781.03;5003823;28;20084;-70
2021/11/30 02:57:01;;;;;;;8.23;3.63;;;;;;;6.50;100.00;100772.25;5008005;28;20045;-70
2021/11/30 02:59:31;;;;;;;9.77;4.30;;;;;;;6.49;100.00;100780.22;5000671;28;20507;-70
2021/11/30 03:02:01;;;;;;;8.90;3.42;;;;;;;6.45;100.00;100770.56;5008723;28;20096;-69
2021/11/30 03:04:29;;;;;;;9.93;3.92;;;;;;;6.47;100.00;100777.59;5001154;28;20061;-74
2021/11/30 03:06:59;;;;;;;8.32;3.55;;;;;;;6.50;100.00;100769.59;5005861;28;20053;-73
2021/11/30 03:09:27;;;;;;;10.13;3.80;;;;;;;6.51;100.00;100770.47;5007112;28;20128;-73
2021/11/30 03:11:56;;;;;;;8.20;3.65;;;;;;;6.54;100.00;100762.47;5002997;28;20059;-73
2021/11/30 03:14:29;;;;;;;8.82;3.67;;;;;;;6.57;100.00;100758.88;5007008;28;20208;-74
2021/11/30 03:16:56;;;;;;;16.95;3.78;;;;;;;6.53;100.00;100745.66;5003006;28;20050;-74
2021/11/30 03:19:27;;;;;;;7.53;3.30;;;;;;;6.63;100.00;100761.44;5001992;28;20046;-72
2021/11/30 03:21:56;;;;;;;8.68;3.38;;;;;;;6.62;100.00;100739.31;5002023;28;20690;-73
2021/11/30 03:24:26;;;;;;;10.95;3.80;;;;;;;6.60;100.00;100746.44;5008494;28;20590;-73
2021/11/30 03:26:54;;;;;;;12.77;4.30;;;;;;;6.64;100.00;100745.50;5000638;28;20053;-73
2021/11/30 03:29:22;;;;;;;10.95;3.63;;;;;;;6.64;100.00;100748.16;5005731;28;20132;-73
2021/11/30 03:31:51;;;;;;;10.05;2.90;;;;;;;6.65;100.00;100739.28;5002227;28;20099;-73
2021/11/30 03:34:21;;;;;;;12.90;3.85;;;;;;;6.65;100.00;100743.72;5007524;28;20056;-73
2021/11/30 03:36:51;;;;;;;10.55;3.35;;;;;;;6.68;100.00;100741.88;5002504;28;20137;-73
2021/11/30 03:39:20;;;;;;;10.38;3.80;;;;;;;6.70;100.00;100744.50;5004666;28;20049;-73
2021/11/30 03:41:52;;;;;;;9.27;3.42;;;;;;;6.78;100.00;100741.72;5002254;28;20152;-72
2021/11/30 03:44:20;;;;;;;7.97;3.53;;;;;;;6.80;100.00;100730.19;5006287;28;20407;-72
2021/11/30 03:46:49;;;;;;;7.93;3.20;;;;;;;6.85;100.00;100732.75;5003486;28;20125;-72
2021/11/30 03:49:17;;;;;;;7.43;3.20;;;;;;;6.79;100.00;100739.03;5004712;28;20490;-74
2021/11/30 03:51:46;;;;;;;15.98;4.18;;;;;;;6.83;100.00;100735.44;5005228;28;20065;-73
2021/11/30 03:54:15;;;;;;;10.70;3.70;;;;;;;6.83;100.00;100732.78;5000978;28;20049;-73
2021/11/30 03:56:43;;;;;;;7.10;4.10;;;;;;;6.84;100.00;100745.13;5003751;28;20905;-72
2021/11/30 03:59:13;;;;;;;11.63;3.92;;;;;;;6.85;100.00;100741.59;5008642;28;20046;-73
2021/11/30 04:01:42;;;;;;;9.45;3.58;;;;;;;6.88;100.00;100740.66;5004485;28;20061;-73
2021/11/30 04:04:19;;;;;;;9.00;4.03;;;;;;;6.92;100.00;100740.56;4997918;28;20127;-73
2021/11/30 04:06:48;;;;;;;9.82;3.78;;;;;;;6.91;100.00;100729.97;5007712;28;20086;-69
2021/11/30 04:09:17;;;;;;;9.88;4.20;;;;;;;6.95;100.00;100739.63;5004426;28;20164;-69
2021/11/30 04:11:46;;;;;;;13.18;5.22;;;;;;;7.02;100.00;100735.09;5002985;28;20700;-69
2021/11/30 04:14:17;;;;;;;11.73;5.03;;;;;;;7.04;100.00;100742.09;5004945;28;20057;-69
2021/11/30 04:16:46;;;;;;;10.43;4.25;;;;;;;6.98;100.00;100739.59;4999327;28;20598;-69
2021/11/30 04:19:14;;;;;;;13.85;4.97;;;;;;;7.03;100.00;100736.81;5007541;28;20096;-70
2021/11/30 04:21:43;;;;;;;11.55;4.60;;;;;;;7.00;100.00;100736.88;5003617;28;20053;-70
2021/11/30 04:24:11;;;;;;;9.88;4.43;;;;;;;7.00;100.00;100732.47;5010003;28;20124;-70
2021/11/30 04:26:39;;;;;;;12.85;5.10;;;;;;;7.08;100.00;100724.34;5003982;28;20054;-70
2021/11/30 04:29:08;;;;;;;15.60;5.82;;;;;;;7.10;100.00;100722.56;5006491;28;20333;-68
2021/11/30 04:31:37;;;;;;;17.67;5.68;;;;;;;7.07;100.00;100714.66;5006478;28;20045;-67
2021/11/30 04:34:05;;;;;;;19.38;6.82;;;;;;;7.09;100.00;100715.50;5008969;28;20494;-69
2021/11/30 04:36:34;;;;;;;25.42;6.85;;;;;;;7.15;100.00;100717.13;5008015;28;20235;-73
2021/11/30 04:39:05;;;;;;;17.40;5.57;;;;;;;7.16;100.00;100708.28;5009019;28;20545;-73
2021/11/30 04:41:34;;;;;;;13.60;5.10;;;;;;;7.16;100.00;100703.84;5002603;28;20061;-73
2021/11/30 04:44:03;;;;;;;16.90;5.70;;;;;;;7.19;100.00;100713.53;5007778;28;20085;-73
2021/11/30 04:46:40;;;;;;;14.45;5.30;;;;;;;7.20;100.00;100700.25;5006558;28;20140;-73
2021/11/30 04:49:14;;;;;;;14.95;5.88;;;;;;;7.20;100.00;100710.84;5010421;28;20141;-73
2021/11/30 04:51:42;;;;;;;16.10;5.88;;;;;;;7.18;100.00;100696.72;5003125;28;20085;-72
2021/11/30 04:54:10;;;;;;;28.33;7.03;;;;;;;7.20;100.00;100686.06;5011171;28;20147;-72
2021/11/30 04:56:38;;;;;;;15.70;5.20;;;;;;;7.27;100.00;100693.91;5002353;28;20618;-72
2021/11/30 04:59:07;;;;;;;15.18;5.57;;;;;;;7.29;100.00;100691.22;5007903;28;20059;-72
2021/11/30 05:01:37;;;;;;;16.05;5.65;;;;;;;7.30;100.00;100682.31;5005334;28;20125;-72
2021/11/30 05:04:05;;;;;;;17.20;5.82;;;;;;;7.29;100.00;100686.78;5004315;28;20103;-72
2021/11/30 05:06:35;;;;;;;15.00;5.70;;;;;;;7.24;100.00;100687.78;5003399;28;20057;-73
2021/11/30 05:09:04;;;;;;;9.60;4.82;;;;;;;7.28;100.00;100689.44;5007928;28;20045;-74
2021/11/30 05:11:35;;;;;;;13.65;5.88;;;;;;;7.35;100.00;100693.72;5004673;28;20490;-73
2021/11/30 05:14:03;;;;;;;14.50;6.40;;;;;;;7.34;100.00;100683.13;5007808;28;20137;-73
2021/11/30 05:16:30;;;;;;;15.02;5.43;;;;;;;7.34;100.00;100684.03;5004403;28;20058;-73
2021/11/30 05:18:59;;;;;;;13.75;6.05;;;;;;;7.38;100.00;100685.69;5011054;28;20084;-74
2021/11/30 05:21:27;;;;;;;14.65;5.30;;;;;;;7.42;100.00;100682.09;5006490;28;20652;-72
2021/11/30 05:24:01;;;;;;;15.75;5.65;;;;;;;7.42;100.00;100681.19;5004330;28;20107;-73
2021/11/30 05:26:29;;;;;;;;;;;;;;;7.46;100.00;100685.56;5001067;28;20058;-72
2021/11/30 05:28:57;;;;;;;17.30;6.30;;;;;;;7.45;100.00;100694.41;5007494;28;19925;-70
2021/11/30 05:31:25;;;;;;;17.70;6.00;;;;;;;7.50;100.00;100689.00;5002635;28;20048;-70
2021/11/30 05:33:53;;;;;;;20.50;6.38;;;;;;;7.51;100.00;100688.97;5008471;28;20104;-69
2021/11/30 05:36:21;;;;;;;14.13;5.70;;;;;;;7.55;100.00;100689.78;5003579;28;20045;-70
2021/11/30 05:38:49;;;;;;;13.90;5.63;;;;;;;7.54;100.00;100691.53;5003951;28;20539;-69
2021/11/30 05:41:19;;;;;;;16.75;5.97;;;;;;;7.53;100.00;100691.59;5008808;28;20136;-70
2021/11/30 05:43:47;;;;;;;15.40;5.95;;;;;;;7.57;100.00;100691.47;5007678;28;20057;-69
2021/11/30 05:46:15;;;;;;;11.27;5.63;;;;;;;7.66;100.00;100696.59;5002229;28;20124;-69
2021/11/30 05:48:43;;;;;;;16.80;6.85;;;;;;;7.61;100.00;100701.16;5005840;28;20229;-69
2021/11/30 05:51:12;;;;;;;16.88;6.03;;;;;;;7.65;100.00;100697.50;5003581;28;20264;-69
2021/11/30 05:53:40;;;;;;;17.77;6.45;;;;;;;7.64;100.00;100692.22;5003510;28;20092;-69
2021/11/30 05:56:09;;;;;;;19.60;6.85;;;;;;;7.62;100.00;100688.72;5002872;28;20144;-69
2021/11/30 05:58:43;;;;;;;21.10;6.97;;;;;;;7.61;100.00;100689.63;5006353;28;20548;-69
2021/11/30 06:01:21;;;;;;;16.35;6.15;;;;;;;7.57;100.00;100696.78;5003921;28;20049;-70
2021/11/30 06:03:59;;;;;;;21.02;7.82;;;;;;;7.62;100.00;100697.56;5006907;28;20057;-69
2021/11/30 06:06:30;;;;;;;18.30;6.70;;;;;;;7.64;100.00;100706.41;5002465;28;20057;-69
2021/11/30 06:08:58;;;;;;;20.25;6.95;;;;;;;7.65;100.00;100701.94;5004240;28;20064;-69
2021/11/30 06:11:29;;;;;;;16.85;7.50;;;;;;;7.63;100.00;100711.72;5005915;28;20065;-70
2021/11/30 06:14:00;;;;;;;20.65;7.25;;;;;;;7.70;100.00;100708.03;5002405;28;20297;-69
2021/11/30 06:16:31;;;;;;;24.92;7.63;;;;;;;7.67;100.00;100700.13;5007851;28;20137;-70
2021/11/30 06:18:59;;;;;;;22.48;7.53;;;;;;;7.66;100.00;100699.25;5003823;28;20041;-69
2021/11/30 06:21:28;;;;;;;19.92;6.57;;;;;;;7.70;100.00;100686.78;5006823;28;20506;-69
2021/11/30 06:23:55;;;;;;;16.27;7.15;;;;;;;7.76;100.00;100691.94;5004645;28;20053;-69
2021/11/30 06:26:23;;;;;;;14.23;5.63;;;;;;;7.79;100.00;100694.53;5009110;28;20132;-69
2021/11/30 06:28:51;;;;;;;22.20;6.18;;;;;;;7.80;100.00;100690.09;5000264;28;20734;-69
2021/11/30 06:31:20;;;;;;;17.92;5.90;;;;;;;7.83;100.00;100698.88;5006525;28;20097;-69
2021/11/30 06:33:48;;;;;;;17.38;6.40;;;;;;;7.90;100.00;100706.69;5006349;28;20084;-69
2021/11/30 06:36:17;;;;;;;25.70;7.40;;;;;;;7.92;100.00;100688.97;5005380;28;20049;-69
2021/11/30 06:38:45;;;;;;;16.38;6.10;;;;;;;8.06;100.00;100699.25;5004987;28;20061;-70
2021/11/30 06:41:13;;;;;;;15.98;6.28;;;;;;;8.03;100.00;100708.16;5006925;28;20068;-69
2021/11/30 06:43:40;;;;;;;15.30;5.50;;;;;;;7.97;100.00;100701.22;5006076;28;20050;-69
2021/11/30 06:46:08;;;;;;;16.17;5.25;;;;;;;8.09;100.00;100701.81;5004427;28;20132;-70
2021/11/30 06:48:38;;;;;;;20.40;5.88;;;;;;;8.11;100.00;100708.00;5002703;28;20080;-68
2021/11/30 06:51:06;;;;;;;11.55;5.05;;;;;;;8.12;100.00;100699.97;5006610;28;20291;-69
2021/11/30 06:53:34;;;;;;;21.20;5.70;;;;;;;8.17;100.00;100703.41;5002559;28;20056;-70
2021/11/30 06:56:02;;;;;;;15.75;5.57;;;;;;;8.14;100.00;100694.59;5000605;28;20051;-69
2021/11/30 06:58:30;;;;;;;15.40;5.13;;;;;;;8.16;100.00;100709.63;5006231;28;20107;-69
2021/11/30 07:00:58;;;;;;;17.85;5.15;;;;;;;8.19;100.00;100706.88;5007210;28;20567;-70
2021/11/30 07:03:26;;;;;;;15.02;5.18;;;;;;;8.28;100.00;100710.25;5003792;28;20139;-69
2021/11/30 07:05:58;;;;;;;17.40;5.28;;;;;;;8.27;100.00;100711.13;5009087;28;20045;-70
2021/11/30 07:08:47;;;;;;;13.07;5.38;;;;;;;8.25;100.00;100710.31;5001830;28;20050;-69
2021/11/30 07:11:34;;;;;;;16.25;5.22;;;;;;;8.16;100.00;100712.28;4999765;28;20049;-68
2021/11/30 07:14:02;;;;;;;11.38;5.18;;;;;;;8.24;100.00;100717.41;5007579;28;20077;-68
2021/11/30 07:16:30;;;;;;;17.98;5.60;;;;;;;8.21;100.00;100710.38;5003947;28;20462;-67
2021/11/30 07:18:59;;;;;;;13.73;5.25;;;;;;;8.22;100.00;100706.81;5002865;28;20050;-68
2021/11/30 07:21:29;;;;;;;17.33;5.45;;;;;;;8.23;100.00;100705.03;5002914;28;20124;-68
2021/11/30 07:23:57;;;;;;;15.18;4.72;;;;;;;8.27;100.00;100703.16;5004743;28;20093;-70
2021/11/30 07:26:26;;;;;;;13.73;4.85;;;;;;;8.28;100.00;100716.41;5003231;28;20203;-72
2021/11/30 07:28:54;;;;;;;14.48;4.30;;;;;;;8.30;100.00;100711.94;5005782;28;20473;-71
2021/11/30 07:31:22;;;;;;;15.13;5.55;;;;;;;8.25;100.00;100716.50;5001317;28;20056;-70
2021/11/30 07:33:50;;;;;;;12.25;4.60;;;;;;;8.27;100.00;100727.94;5007188;28;20175;-68
2021/11/30 07:36:19;;;;;;;18.98;6.15;;;;;;;8.21;100.00;100728.13;5000299;28;20042;-68
2021/11/30 07:38:49;;;;;;;18.10;5.93;;;;;;;8.26;100.00;100709.38;5005760;28;20076;-68
2021/11/30 07:41:19;;;;;;;15.27;4.93;;;;;;;8.25;100.00;100726.25;5000483;28;20049;-67
2021/11/30 07:43:48;;;;;;;11.70;4.75;;;;;;;8.23;100.00;100735.13;5022154;28;20054;-68
2021/11/30 07:46:15;;;;;;;11.15;4.55;;;;;;;8.26;100.00;100728.00;5006880;28;20055;-68
2021/11/30 07:48:43;;;;;;;16.85;5.13;;;;;;;8.21;100.00;100720.16;5005268;28;20687;-68
2021/11/30 07:51:16;;;;;;;14.95;4.45;;;;;;;8.24;100.00;100720.06;5006298;28;20125;-68
2021/11/30 07:53:45;;;;;;;14.48;4.55;;;;;;;8.23;100.00;100732.47;5001913;28;20082;-71
2021/11/30 07:56:16;;;;;;;9.50;3.95;;;;;;;8.32;100.00;100746.47;5008701;28;20053;-71
2021/11/30 07:58:44;;;;;;;14.05;4.63;;;;;;;8.37;100.00;100733.94;5004183;28;20081;-70
2021/11/30 08:01:16;;;;;;;15.20;4.82;;;;;;;8.37;100.00;100737.44;5010907;28;20131;-71
2021/11/30 08:03:44;;;;;;;17.27;5.32;;;;;;;8.37;100.00;100734.78;5003817;28;20053;-68
2021/11/30 08:06:13;;;;;;;11.63;5.00;;;;;;;8.38;100.00;100736.56;5007866;28;20148;-71
2021/11/30 08:08:41;;;;;;;13.57;5.15;;;;;;;8.44;100.00;100730.22;5002825;28;20052;-71
2021/11/30 08:11:10;;;;;;;9.85;4.60;;;;;;;8.39;100.00;100732.09;5007691;28;20169;-72
2021/11/30 08:13:40;;;;;;;13.95;5.10;;;;;;;8.43;100.00;100735.59;5004369;28;20054;-72
2021/11/30 08:16:08;;;;;;;14.63;5.30;;;;;;;8.45;100.00;100739.97;5007357;28;20593;-71
2021/11/30 08:18:36;;;;;;;14.15;4.60;;;;;;;8.45;100.00;100736.44;5006595;28;20118;-71
2021/11/30 08:21:06;;;;;;;16.42;5.88;;;;;;;8.37;100.00;100740.09;5008012;28;20053;-71
2021/11/30 08:23:33;;;;;;;20.38;5.57;;;;;;;8.41;100.00;100751.53;5008250;28;20049;-71
2021/11/30 08:26:01;;;;;;;19.95;7.10;;;;;;;8.38;100.00;100736.56;5010092;28;20105;-71
2021/11/30 08:28:29;;;;;;;20.10;6.75;;;;;;;8.43;100.00;100747.13;5008497;28;20081;-73
2021/11/30 08:30:58;;;;;;;18.65;5.75;;;;;;;8.40;100.00;100744.50;5003257;28;21005;-72
2021/11/30 08:33:26;;;;;;;14.27;5.03;;;;;;;8.44;100.00;100740.88;5009559;28;20471;-72
2021/11/30 08:35:56;;;;;;;15.80;5.00;;;;;;;8.48;100.00;100741.66;5005176;28;20124;-72
2021/11/30 08:38:25;;;;;;;17.90;5.15;;;;;;;8.48;100.00;100754.97;5008340;28;20517;-72
2021/11/30 08:40:55;;;;;;;13.82;4.95;;;;;;;8.53;100.00;100743.31;5009942;28;20073;-72
2021/11/30 08:43:23;;;;;;;18.75;5.20;;;;;;;8.53;100.00;100740.66;5006056;28;20053;-72
2021/11/30 08:45:52;;;;;;;15.38;4.95;;;;;;;8.59;100.00;100744.94;5007660;28;20520;-74
2021/11/30 08:48:22;;;;;;;18.52;5.15;;;;;;;8.61;100.00;100743.09;5007050;28;20093;-72
2021/11/30 08:50:50;;;;;;;16.00;5.00;;;;;;;8.60;100.00;100747.56;5007290;28;20398;-72
2021/11/30 08:53:18;;;;;;;11.90;4.40;;;;;;;8.62;100.00;100744.88;5002489;28;20049;-73
2021/11/30 08:55:47;;;;;;;15.95;4.30;;;;;;;8.63;100.00;100740.41;5007970;28;20054;-72
2021/11/30 08:58:15;;;;;;;14.77;4.20;;;;;;;8.67;100.00;100744.75;5005361;28;20713;-73
2021/11/30 09:00:44;;;;;;;15.20;4.32;;;;;;;8.67;100.00;100750.06;5009912;28;20107;-72
2021/11/30 09:03:12;;;;;;;14.07;4.22;;;;;;;8.68;100.00;100757.13;5002738;28;20083;-72
2021/11/30 09:05:42;;;;;;;13.60;4.25;;;;;;;8.73;100.00;100758.75;5008541;28;22205;-73
2021/11/30 09:08:11;;;;;;;16.67;4.93;;;;;;;8.69;100.00;100769.53;5000883;28;20141;-73
2021/11/30 09:10:40;;;;;;;16.52;4.72;;;;;;;8.69;100.00;100758.88;5008410;28;20152;-72
2021/11/30 09:13:08;;;;;;;17.42;4.45;;;;;;;8.71;100.00;100752.59;5001481;28;20064;-74
2021/11/30 09:15:37;;;;;;;11.48;4.22;;;;;;;8.75;100.00;100762.25;5005735;28;20141;-72
2021/11/30 09:18:06;;;;;;;13.05;3.90;;;;;;;8.73;100.00;100763.19;5002903;28;20107;-72
2021/11/30 09:20:35;;;;;;;16.45;4.00;;;;;;;8.73;100.00;100773.84;5007430;28;20092;-71
2021/11/30 09:23:04;;;;;;;13.65;4.00;;;;;;;8.71;100.00;100773.88;5004294;28;20056;-72
2021/11/30 09:25:33;;;;;;;11.65;4.28;;;;;;;8.75;100.00;100767.59;5007042;28;20055;-72
2021/11/30 09:28:02;;;;;;;12.50;3.58;;;;;;;8.84;100.00;100778.91;5004663;28;20552;-69
2021/11/30 09:30:30;;;;;;;18.17;4.70;;;;;;;8.84;100.00;100781.56;4999304;28;20057;-69
2021/11/30 09:32:58;;;;;;;18.70;5.68;;;;;;;8.85;100.00;100765.53;5001920;28;20056;-68
2021/11/30 09:35:27;;;;;;;20.50;4.90;;;;;;;8.84;100.00;100781.56;5009898;28;20422;-69
2021/11/30 09:37:56;;;;;;;11.68;4.00;;;;;;;8.85;100.00;100784.16;5003317;28;20076;-69
2021/11/30 09:40:27;;;;;;;11.65;4.53;;;;;;;8.84;100.00;100778.91;5010580;28;20076;-69
2021/11/30 09:43:16;;;;;;;16.20;4.03;;;;;;;8.80;100.00;100775.44;5007961;28;20045;-69
2021/11/30 09:45:44;;;;;;;16.17;4.07;;;;;;;8.78;100.00;100761.28;5006732;28;20460;-69
2021/11/30 09:48:13;;;;;;;15.32;4.75;;;;;;;8.74;100.00;100776.47;5002866;28;21907;-69
2021/11/30 09:50:45;;;;;;;14.52;4.63;;;;;;;8.77;100.00;100780.84;5007249;28;20057;-69
2021/11/30 09:53:14;;;;;;;10.50;4.47;;;;;;;8.78;100.00;100780.81;5004865;28;20071;-69
2021/11/30 09:55:46;;;;;;;14.65;4.78;;;;;;;8.86;100.00;100785.06;5002585;28;20060;-69
2021/11/30 09:58:16;;;;;;;16.08;5.15;;;;;;;8.82;100.00;100778.94;5006639;28;20075;-68
2021/11/30 10:00:46;;;;;;;18.42;4.68;;;;;;;8.85;100.00;100778.84;5006469;28;20140;-69
2021/11/30 10:03:17;;;;;;;13.77;4.80;;;;;;;8.87;100.00;100776.16;5005339;28;20726;-68
2021/11/30 10:05:47;;;;;;;12.45;4.15;;;;;;;8.87;100.00;100789.44;5002772;28;20065;-68
2021/11/30 10:08:30;;;;;;;14.57;4.43;;;;;;;8.87;100.00;100786.78;5005025;28;20189;-69
2021/11/30 10:11:25;;;;;;;14.55;4.60;;;;;;;8.90;100.00;100781.38;5002128;28;20046;-68
2021/11/30 10:14:23;;;;;;;19.00;4.60;;;;;;;8.90;100.00;100776.94;5006337;28;20060;-68
2021/11/30 10:17:18;;;;;;;18.38;5.03;;;;;;;8.87;100.00;100770.81;5007288;28;20056;-69
2021/11/30 10:19:54;;;;;;;14.82;4.68;;;;;;;8.90;100.00;100782.25;5007631;28;20123;-68
2021/11/30 10:22:40;;;;;;;7.75;3.67;;;;;;;8.90;100.00;100787.56;5001695;28;20046;-69
2021/11/30 10:25:19;;;;;;;10.38;3.95;;;;;;;8.88;100.00;100785.88;5004773;28;20058;-68
2021/11/30 10:27:50;;;;;;;20.65;5.15;;;;;;;8.88;100.00;100784.09;5002763;28;20054;-68
2021/11/30 10:30:21;;;;;;;10.63;4.30;;;;;;;8.88;100.00;100776.09;5004911;28;20076;-68
2021/11/30 10:32:51;;;;;;;9.45;4.03;;;;;;;8.85;100.00;100786.81;5002221;28;20054;-68
2021/11/30 10:35:20;;;;;;;13.38;4.10;;;;;;;8.86;100.00;100785.06;5004159;28;20095;-71
2021/11/30 10:37:48;;;;;;;9.63;4.10;;;;;;;8.83;100.00;100782.47;5001174;28;20077;-72
2021/11/30 10:40:18;;;;;;;10.20;4.20;;;;;;;8.86;100.00;100790.38;5002189;28;20076;-72
2021/11/30 10:42:53;;;;;;;10.70;5.45;;;;;;;8.86;100.00;100785.06;5003457;28;20060;-69
2021/11/30 10:45:29;;;;;;;10.98;4.25;;;;;;;8.83;100.00;100782.47;5001948;28;20231;-69
2021/11/30 10:48:06;;;;;;;11.85;3.78;;;;;;;8.85;100.00;100775.31;5006768;28;20057;-69
2021/11/30 10:50:42;;;;;;;11.70;4.15;;;;;;;8.88;100.00;100769.91;4999717;28;20665;-69
2021/11/30 10:53:22;;;;;;;18.35;4.80;;;;;;;8.83;100.00;100769.16;5007437;28;20129;-69
2021/11/30 10:55:53;;;;;;;14.63;4.30;;;;;;;8.83;100.00;100779.81;5002490;28;20073;-69
2021/11/30 10:58:26;;;;;;;16.42;4.57;;;;;;;8.84;100.00;100770.94;5006050;28;20057;-69
2021/11/30 11:00:57;;;;;;;15.48;4.72;;;;;;;8.84;100.00;100777.09;4998870;28;20063;-69
2021/11/30 11:03:27;;;;;;;15.38;4.25;;;;;;;8.87;100.00;100770.81;5006495;28;21282;-68
2021/11/30 11:08:45;;;;;;;12.43;3.85;;;;;;;8.85;100.00;100770.84;5008631;28;20242;-68
2021/11/30 11:11:19;;;;;;;12.90;4.95;;;;;;;8.81;100.00;100769.19;5005279;28;20077;-71
2021/11/30 11:13:49;;;;;;;13.50;4.68;;;;;;;8.84;100.00;100773.59;5003679;28;20123;-71
2021/11/30 11:16:26;;;;;;;13.57;5.53;;;;;;;8.87;100.00;100770.81;5003614;28;20052;-71
2021/11/30 11:18:56;;;;;;;14.40;4.18;;;;;;;8.84;100.00;100769.13;5006310;28;20049;-74
2021/11/30 11:21:27;;;;;;;10.73;4.13;;;;;;;8.81;100.00;100766.53;5000144;28;20133;-71
2021/11/30 11:24:02;;;;;;;10.93;4.43;;;;;;;8.83;100.00;100767.38;5003755;28;20046;-69
2021/11/30 11:26:32;;;;;;;16.70;5.05;;;;;;;8.88;100.00;100762.81;5002217;28;20785;-69
2021/11/30 11:29:06;;;;;;;12.65;4.53;;;;;;;8.91;100.00;100757.41;5006021;28;20092;-69
2021/11/30 11:31:37;;;;;;;14.75;4.57;;;;;;;8.93;100.00;100757.38;5004103;28;20045;-69
2021/11/30 11:34:07;;;;;;;23.58;5.70;;;;;;;8.96;100.00;100767.94;5005827;28;20042;-69
2021/11/30 11:36:36;;;;;;;19.23;5.60;;;;;;;8.96;100.00;100752.84;5003924;28;20104;-69